createdAt,value
2022-12-26T11:24:33.361Z,10.70
2022-12-26T11:27:20.449Z,10.80
2022-12-26T11:29:47.431Z,10.80
2022-12-26T11:32:23.317Z,10.80
2022-12-26T11:34:51.205Z,10.80
2022-12-26T11:37:44.889Z,10.80
2022-12-26T11:40:31.224Z,10.90
2022-12-26T11:43:04.948Z,11.00
2022-12-26T11:45:38.904Z,10.90
2022-12-26T11:48:19.190Z,10.90
2022-12-26T11:50:46.762Z,11.00
2022-12-26T11:53:18.806Z,10.90
2022-12-26T11:56:02.525Z,10.80
2022-12-26T11:58:33.990Z,10.90
2022-12-26T12:01:00.858Z,10.90
2022-12-26T12:03:50.305Z,10.90
2022-12-26T12:06:43.422Z,11.00
2022-12-26T12:09:27.976Z,10.90
2022-12-26T12:12:03.739Z,10.90
2022-12-26T12:15:05.644Z,10.90
2022-12-26T12:18:04.416Z,10.90
2022-12-26T12:21:10.338Z,11.00
2022-12-26T12:24:14.158Z,11.00
2022-12-26T12:27:00.104Z,11.00
2022-12-26T12:29:58.802Z,10.90
2022-12-26T12:32:46.139Z,10.90
2022-12-26T12:35:36.797Z,10.80
2022-12-26T12:38:19.130Z,10.70
2022-12-26T12:40:54.728Z,10.70
2022-12-26T12:43:49.461Z,10.70
2022-12-26T12:46:35.758Z,10.80
2022-12-26T12:49:24.613Z,11.00
2022-12-26T12:52:25.914Z,11.00
2022-12-26T12:55:29.791Z,10.90
2022-12-26T12:58:08.168Z,10.90
2022-12-26T13:01:01.447Z,10.80
2022-12-26T13:03:40.641Z,10.70
2022-12-26T13:06:15.618Z,10.70
2022-12-26T13:08:47.799Z,10.70
2022-12-26T13:11:25.280Z,10.70
2022-12-26T13:14:09.498Z,10.80
2022-12-26T13:16:45.985Z,10.80
2022-12-26T13:19:24.253Z,10.70
2022-12-26T13:22:00.913Z,10.70
2022-12-26T13:24:32.989Z,10.60
2022-12-26T13:27:33.590Z,10.60
2022-12-26T13:30:13.323Z,10.70
2022-12-26T13:32:46.595Z,10.70
2022-12-26T13:36:11.475Z,10.80
2022-12-26T13:38:56.348Z,10.70
2022-12-26T13:41:44.155Z,10.80
2022-12-26T13:44:20.424Z,10.80
2022-12-26T13:46:52.255Z,10.80
2022-12-26T13:49:40.180Z,10.70
2022-12-26T13:52:14.902Z,10.80
2022-12-26T13:54:48.054Z,10.70
2022-12-26T13:57:32.461Z,10.70
2022-12-26T13:59:59.421Z,10.70
2022-12-26T14:02:50.182Z,10.70
2022-12-26T14:05:30.983Z,10.70
2022-12-26T14:08:28.341Z,10.80
2022-12-26T14:11:12.179Z,10.80
2022-12-26T14:14:01.039Z,10.80
2022-12-26T14:16:33.855Z,10.80
2022-12-26T14:19:16.769Z,10.80
2022-12-26T14:22:08.540Z,10.70
2022-12-26T14:24:57.030Z,10.70
2022-12-26T14:27:32.585Z,10.70
2022-12-26T14:30:22.369Z,10.70
2022-12-26T14:33:12.536Z,10.70
2022-12-26T14:36:10.228Z,10.70
2022-12-26T14:38:46.589Z,10.60
2022-12-26T14:41:35.513Z,10.50
2022-12-26T14:44:38.088Z,10.50
2022-12-26T14:47:09.826Z,10.40
2022-12-26T14:49:40.033Z,10.40
2022-12-26T14:52:25.263Z,10.40
2022-12-26T14:54:54.231Z,10.40
2022-12-26T14:57:42.339Z,10.40
2022-12-26T15:00:21.787Z,10.40
2022-12-26T15:02:53.755Z,10.40
2022-12-26T15:05:26.008Z,10.30
2022-12-26T15:08:11.656Z,10.10
2022-12-26T15:11:13.285Z,10.00
2022-12-26T15:14:28.916Z,9.90
2022-12-26T15:17:19.697Z,9.80
2022-12-26T15:19:51.843Z,9.70
2022-12-26T15:22:37.704Z,9.70
2022-12-26T15:25:23.208Z,9.70
2022-12-26T15:28:13.560Z,9.60
2022-12-26T15:31:08.955Z,9.50
2022-12-26T15:34:03.417Z,9.50
2022-12-26T15:36:45.913Z,9.50
2022-12-26T15:39:27.292Z,9.50
2022-12-26T15:41:56.457Z,9.50
2022-12-26T15:44:45.160Z,9.50
2022-12-26T15:47:33.364Z,9.40
2022-12-26T15:50:24.961Z,9.30
2022-12-26T15:53:16.503Z,9.30
2022-12-26T15:56:02.392Z,9.30
2022-12-26T15:59:05.716Z,9.30
2022-12-26T16:01:44.652Z,9.30
2022-12-26T16:04:35.902Z,9.20
2022-12-26T16:07:20.265Z,9.20
2022-12-26T16:09:52.927Z,9.20
2022-12-26T16:12:21.779Z,9.10
2022-12-26T16:14:59.576Z,9.20
2022-12-26T16:17:29.399Z,9.10
2022-12-26T16:20:01.567Z,9.10
2022-12-26T16:22:47.899Z,9.10
2022-12-26T16:25:22.850Z,9.10
2022-12-26T16:27:53.860Z,9.10
2022-12-26T16:30:26.461Z,9.10
2022-12-26T16:32:54.951Z,9.00
2022-12-26T16:35:30.824Z,8.90
2022-12-26T16:38:00.526Z,8.90
2022-12-26T16:40:40.301Z,8.90
2022-12-26T16:43:18.838Z,8.80
2022-12-26T16:45:48.718Z,8.90
2022-12-26T16:48:24.265Z,8.90
2022-12-26T16:50:55.559Z,8.80
2022-12-26T16:53:35.218Z,8.80
2022-12-26T16:56:34.287Z,8.90
2022-12-26T16:59:17.804Z,8.90
2022-12-26T17:02:05.678Z,8.90
2022-12-26T17:04:32.804Z,8.90
2022-12-26T17:07:06.998Z,9.00
2022-12-26T17:09:44.780Z,9.00
2022-12-26T17:12:26.138Z,9.00
2022-12-26T17:15:00.121Z,9.10
2022-12-26T17:17:30.461Z,9.20
2022-12-26T17:20:18.747Z,9.20
2022-12-26T17:22:47.955Z,9.20
2022-12-26T17:25:17.605Z,9.20
2022-12-26T17:27:45.654Z,9.20
2022-12-26T17:30:28.338Z,9.20
2022-12-26T17:33:16.750Z,9.30
2022-12-26T17:38:40.612Z,9.40
2022-12-26T17:41:09.754Z,9.40
2022-12-26T17:43:38.847Z,9.50
2022-12-26T17:46:07.428Z,9.50
2022-12-26T17:48:35.077Z,9.50
2022-12-26T17:51:07.356Z,9.60
2022-12-26T17:53:43.254Z,9.60
2022-12-26T17:56:16.697Z,9.60
2022-12-26T17:58:44.549Z,9.60
2022-12-26T18:01:20.745Z,9.60
2022-12-26T18:03:49.152Z,9.60
2022-12-26T18:06:17.328Z,9.70
2022-12-26T18:08:45.378Z,9.70
2022-12-26T18:11:15.069Z,9.60
2022-12-26T18:13:44.736Z,9.60
2022-12-26T18:16:19.976Z,9.60
2022-12-26T18:18:51.173Z,9.50
2022-12-26T18:21:18.092Z,9.60
2022-12-26T18:23:47.529Z,9.50
2022-12-26T18:26:26.770Z,9.60
2022-12-26T18:28:58.671Z,9.60
2022-12-26T18:31:31.669Z,9.70
2022-12-26T18:33:58.905Z,9.80
2022-12-26T18:36:38.438Z,9.60
2022-12-26T18:39:09.090Z,8.60
2022-12-26T18:41:38.301Z,8.00
2022-12-26T18:44:11.109Z,7.80
2022-12-26T18:46:38.269Z,7.60
2022-12-26T18:49:05.363Z,7.60
2022-12-26T18:51:37.782Z,7.50
2022-12-26T18:54:10.214Z,7.40
2022-12-26T18:56:38.685Z,7.40
2022-12-26T18:59:05.905Z,7.40
2022-12-26T19:01:35.033Z,7.50
2022-12-26T19:04:06.899Z,7.50
2022-12-26T19:06:37.701Z,7.50
2022-12-26T19:09:06.052Z,7.50
2022-12-26T19:11:46.704Z,7.50
2022-12-26T19:14:20.514Z,7.50
2022-12-26T19:16:49.989Z,7.50
2022-12-26T19:19:21.427Z,7.50
2022-12-26T19:21:51.637Z,7.50
2022-12-26T19:24:23.913Z,7.50
2022-12-26T19:26:53.389Z,7.50
2022-12-26T19:29:20.304Z,7.50
2022-12-26T19:31:47.509Z,7.50
2022-12-26T19:34:16.817Z,7.50
2022-12-26T19:36:48.669Z,7.50
2022-12-26T19:39:17.975Z,7.40
2022-12-26T19:41:44.914Z,7.40
2022-12-26T19:44:11.892Z,7.30
2022-12-26T19:46:41.234Z,7.30
2022-12-26T19:49:10.635Z,7.20
2022-12-26T19:51:40.240Z,7.20
2022-12-26T19:54:09.716Z,7.10
2022-12-26T19:56:39.274Z,7.00
2022-12-26T19:59:06.280Z,6.90
2022-12-26T20:01:33.623Z,7.10
2022-12-26T20:04:09.669Z,7.20
2022-12-26T20:06:41.964Z,7.30
2022-12-26T20:09:11.835Z,7.40
2022-12-26T20:11:45.153Z,7.50
2022-12-26T20:14:15.202Z,7.70
2022-12-26T20:17:09.987Z,7.70
2022-12-26T20:19:40.092Z,7.80
2022-12-26T20:22:07.716Z,7.80
2022-12-26T20:24:39.404Z,7.80
2022-12-26T20:27:06.501Z,7.80
2022-12-26T20:29:43.461Z,7.80
2022-12-26T20:32:15.239Z,7.90
2022-12-26T20:34:50.407Z,7.90
2022-12-26T20:37:18.783Z,7.80
2022-12-26T20:39:45.827Z,7.80
2022-12-26T20:42:15.685Z,7.70
2022-12-26T20:44:45.246Z,7.80
2022-12-26T20:47:14.543Z,7.90
2022-12-26T20:49:41.601Z,7.90
2022-12-26T20:52:11.112Z,7.80
2022-12-26T20:54:41.041Z,7.80
2022-12-26T20:57:08.006Z,7.60
2022-12-26T20:59:35.258Z,7.70
2022-12-26T21:02:04.853Z,7.60
2022-12-26T21:04:36.699Z,7.60
2022-12-26T21:07:03.889Z,7.60
2022-12-26T21:09:42.479Z,7.60
2022-12-26T21:12:15.152Z,7.60
2022-12-26T21:14:42.310Z,7.70
2022-12-26T21:17:21.905Z,7.70
2022-12-26T21:19:48.962Z,7.70
2022-12-26T21:22:16.028Z,7.70
2022-12-26T21:24:42.953Z,7.80
2022-12-26T21:27:13.008Z,7.80
2022-12-26T21:29:42.473Z,7.80
2022-12-26T21:32:12.166Z,7.50
2022-12-26T21:34:39.220Z,7.50
2022-12-26T21:37:27.330Z,7.50
2022-12-26T21:39:54.256Z,7.40
2022-12-26T21:42:21.153Z,7.60
2022-12-26T21:44:48.218Z,7.60
2022-12-26T21:47:17.796Z,7.50
2022-12-26T21:49:44.767Z,7.40
2022-12-26T21:52:11.794Z,7.20
2022-12-26T21:54:57.655Z,7.10
2022-12-26T21:57:25.851Z,6.90
2022-12-26T21:59:58.995Z,6.60
2022-12-26T22:02:58.623Z,6.50
2022-12-26T22:05:27.815Z,6.50
2022-12-26T22:08:01.865Z,6.50
2022-12-26T22:10:54.268Z,6.60
2022-12-26T22:13:45.664Z,6.70
2022-12-26T22:16:13.209Z,6.80
2022-12-26T22:18:44.311Z,6.80
2022-12-26T22:21:18.148Z,6.90
2022-12-26T22:23:45.409Z,6.90
2022-12-26T22:29:13.995Z,7.00
2022-12-26T22:32:33.883Z,6.80
2022-12-26T22:35:01.000Z,6.60
2022-12-26T22:37:28.019Z,6.50
2022-12-26T22:39:54.992Z,6.40
2022-12-26T22:42:24.357Z,6.30
2022-12-26T22:44:51.398Z,6.20
2022-12-26T22:47:18.383Z,6.30
2022-12-26T22:49:45.480Z,6.30
2022-12-26T22:52:15.822Z,6.40
2022-12-26T22:54:45.563Z,6.50
2022-12-26T22:57:12.733Z,6.50
2022-12-26T23:00:07.674Z,6.50
2022-12-26T23:02:31.861Z,6.60
2022-12-26T23:04:59.268Z,6.70
2022-12-26T23:07:29.152Z,6.70
2022-12-26T23:09:59.004Z,6.70
2022-12-26T23:12:44.349Z,6.60
2022-12-26T23:15:16.789Z,6.50
2022-12-26T23:18:11.871Z,6.50
2022-12-26T23:21:00.120Z,6.40
2022-12-26T23:23:29.871Z,6.50
2022-12-26T23:26:01.133Z,6.40
2022-12-26T23:28:46.853Z,6.40
2022-12-26T23:31:13.827Z,6.30
2022-12-26T23:33:42.955Z,6.10
2022-12-26T23:36:15.267Z,5.80
2022-12-26T23:38:42.427Z,5.70
2022-12-26T23:41:09.440Z,5.50
2022-12-26T23:43:36.532Z,5.50
2022-12-26T23:46:10.620Z,5.40
2022-12-26T23:48:37.662Z,5.30
2022-12-26T23:51:08.536Z,5.20
2022-12-26T23:53:38.489Z,5.20
2022-12-26T23:56:09.997Z,5.10
2022-12-26T23:58:40.771Z,5.10
